Terminal Aerodrome Forecast
Issued by NWS Knoxville/Tri Cities, TN

Home | Current Version | Previous Version | Text Only | Print | Product List | Glossary On
Versions: 1 2 3 4 5 6 7 8 9 10 11 12
000
FTUS44 KMRX 221129
TAFTYS
TAF
KTYS 221129Z 2212/2312 VRB04KT P6SM BKN250
     FM221500 14009KT P6SM SCT120 BKN250
     FM221700 21014G22KT P6SM SCT120 BKN250
     FM222000 22016G27KT P6SM VCSH BKN040 OVC120
     FM230000 21014G22KT 4SM -SHRA BR VCTS BKN035CB
     FM230400 23014G17KT 6SM -SHRA OVC035
     FM230700 23013KT P6SM SCT050=

USA.gov is the U.S. government's official web portal to all federal, state and local government web resources and services.